sensor_id;sensor_type;location;lat;lon;timestamp;temperature;humidity
1379;DHT22;683;48.738;9.226;2022-09-12T00:00:20;11.80;99.90
1379;DHT22;683;48.738;9.226;2022-09-12T00:02:51;11.80;99.90
1379;DHT22;683;48.738;9.226;2022-09-12T00:05:20;11.70;99.90
1379;DHT22;683;48.738;9.226;2022-09-12T00:07:49;11.70;99.90
1379;DHT22;683;48.738;9.226;2022-09-12T00:10:17;11.70;99.90
1379;DHT22;683;48.738;9.226;2022-09-12T00:12:45;11.70;99.90
1379;DHT22;683;48.738;9.226;2022-09-12T00:15:13;11.60;99.90
1379;DHT22;683;48.738;9.226;2022-09-12T00:17:40;11.60;99.90
1379;DHT22;683;48.738;9.226;2022-09-12T00:20:09;11.60;99.90
1379;DHT22;683;48.738;9.226;2022-09-12T00:22:37;11.60;99.90
1379;DHT22;683;48.738;9.226;2022-09-12T00:25:06;11.60;99.90
1379;DHT22;683;48.738;9.226;2022-09-12T00:27:34;11.60;99.90
1379;DHT22;683;48.738;9.226;2022-09-12T00:30:03;11.60;99.90
1379;DHT22;683;48.738;9.226;2022-09-12T00:32:30;11.60;99.90
1379;DHT22;683;48.738;9.226;2022-09-12T00:34:58;11.60;99.90
1379;DHT22;683;48.738;9.226;2022-09-12T00:37:28;11.50;99.90
1379;DHT22;683;48.738;9.226;2022-09-12T00:39:55;11.50;99.90
1379;DHT22;683;48.738;9.226;2022-09-12T00:42:25;11.50;99.90
1379;DHT22;683;48.738;9.226;2022-09-12T00:44:52;11.50;99.90
1379;DHT22;683;48.738;9.226;2022-09-12T00:47:24;11.40;99.90
1379;DHT22;683;48.738;9.226;2022-09-12T00:49:58;11.40;99.90
1379;DHT22;683;48.738;9.226;2022-09-12T00:52:30;11.40;99.90
1379;DHT22;683;48.738;9.226;2022-09-12T00:55:03;11.40;99.90
1379;DHT22;683;48.738;9.226;2022-09-12T00:57:36;11.50;99.90
1379;DHT22;683;48.738;9.226;2022-09-12T01:00:08;11.50;99.90
1379;DHT22;683;48.738;9.226;2022-09-12T01:02:42;11.60;99.90
1379;DHT22;683;48.738;9.226;2022-09-12T01:05:11;11.60;99.90
1379;DHT22;683;48.738;9.226;2022-09-12T01:07:40;11.60;99.90
1379;DHT22;683;48.738;9.226;2022-09-12T01:10:08;11.50;99.90
1379;DHT22;683;48.738;9.226;2022-09-12T01:12:39;11.40;99.90
1379;DHT22;683;48.738;9.226;2022-09-12T01:15:08;11.40;99.90
1379;DHT22;683;48.738;9.226;2022-09-12T01:17:46;11.40;99.90
1379;DHT22;683;48.738;9.226;2022-09-12T01:20:31;11.30;99.90
1379;DHT22;683;48.738;9.226;2022-09-12T01:23:23;11.30;99.90
1379;DHT22;683;48.738;9.226;2022-09-12T01:26:10;11.30;99.90
1379;DHT22;683;48.738;9.226;2022-09-12T01:29:02;11.20;99.90
1379;DHT22;683;48.738;9.226;2022-09-12T01:31:44;11.20;99.90
1379;DHT22;683;48.738;9.226;2022-09-12T01:34:21;11.20;99.90
1379;DHT22;683;48.738;9.226;2022-09-12T01:36:58;11.10;99.90
1379;DHT22;683;48.738;9.226;2022-09-12T01:39:34;11.10;99.90
1379;DHT22;683;48.738;9.226;2022-09-12T01:42:09;11.10;99.90
1379;DHT22;683;48.738;9.226;2022-09-12T01:44:47;11.20;99.90
1379;DHT22;683;48.738;9.226;2022-09-12T01:47:20;11.20;99.90
1379;DHT22;683;48.738;9.226;2022-09-12T01:49:54;11.10;99.90
1379;DHT22;683;48.738;9.226;2022-09-12T01:52:26;11.10;99.90
1379;DHT22;683;48.738;9.226;2022-09-12T01:54:59;11.10;99.90
1379;DHT22;683;48.738;9.226;2022-09-12T01:57:32;11.10;99.90
1379;DHT22;683;48.738;9.226;2022-09-12T02:00:06;11.10;99.90
1379;DHT22;683;48.738;9.226;2022-09-12T02:02:49;11.10;99.90
1379;DHT22;683;48.738;9.226;2022-09-12T02:05:24;11.10;99.90
1379;DHT22;683;48.738;9.226;2022-09-12T02:07:58;11.00;99.90
1379;DHT22;683;48.738;9.226;2022-09-12T02:10:30;11.00;99.90
1379;DHT22;683;48.738;9.226;2022-09-12T02:13:03;11.00;99.90
1379;DHT22;683;48.738;9.226;2022-09-12T02:15:42;10.90;99.90
1379;DHT22;683;48.738;9.226;2022-09-12T02:18:14;10.90;99.90
1379;DHT22;683;48.738;9.226;2022-09-12T02:20:45;11.00;99.90
1379;DHT22;683;48.738;9.226;2022-09-12T02:23:17;11.00;99.90
1379;DHT22;683;48.738;9.226;2022-09-12T02:25:48;11.00;99.90
1379;DHT22;683;48.738;9.226;2022-09-12T02:28:22;11.00;99.90
1379;DHT22;683;48.738;9.226;2022-09-12T02:30:58;10.90;99.90
1379;DHT22;683;48.738;9.226;2022-09-12T02:33:31;10.90;99.90
1379;DHT22;683;48.738;9.226;2022-09-12T02:36:11;10.90;99.90
1379;DHT22;683;48.738;9.226;2022-09-12T02:38:48;10.80;99.90
1379;DHT22;683;48.738;9.226;2022-09-12T02:41:18;10.80;99.90
1379;DHT22;683;48.738;9.226;2022-09-12T02:43:48;10.70;99.90
1379;DHT22;683;48.738;9.226;2022-09-12T02:46:20;10.70;99.90
1379;DHT22;683;48.738;9.226;2022-09-12T02:48:50;10.70;99.90
1379;DHT22;683;48.738;9.226;2022-09-12T02:51:18;10.80;99.90
1379;DHT22;683;48.738;9.226;2022-09-12T02:53:45;10.80;99.90
1379;DHT22;683;48.738;9.226;2022-09-12T02:56:17;10.80;99.90
1379;DHT22;683;48.738;9.226;2022-09-12T02:58:47;10.70;99.90
1379;DHT22;683;48.738;9.226;2022-09-12T03:01:25;10.70;99.90
1379;DHT22;683;48.738;9.226;2022-09-12T03:04:20;10.60;99.90
1379;DHT22;683;48.738;9.226;2022-09-12T03:07:00;10.50;99.90
1379;DHT22;683;48.738;9.226;2022-09-12T03:09:36;10.50;99.90
1379;DHT22;683;48.738;9.226;2022-09-12T03:12:14;10.50;99.90
1379;DHT22;683;48.738;9.226;2022-09-12T03:14:59;10.50;99.90
1379;DHT22;683;48.738;9.226;2022-09-12T03:17:43;10.50;99.90
1379;DHT22;683;48.738;9.226;2022-09-12T03:20:21;10.60;99.90
1379;DHT22;683;48.738;9.226;2022-09-12T03:22:55;10.60;99.90
1379;DHT22;683;48.738;9.226;2022-09-12T03:25:29;10.60;99.90
1379;DHT22;683;48.738;9.226;2022-09-12T03:28:01;10.60;99.90
1379;DHT22;683;48.738;9.226;2022-09-12T03:30:37;10.60;99.90
1379;DHT22;683;48.738;9.226;2022-09-12T03:33:05;10.60;99.90
1379;DHT22;683;48.738;9.226;2022-09-12T03:35:38;10.60;99.90
1379;DHT22;683;48.738;9.226;2022-09-12T03:38:06;10.60;99.90
1379;DHT22;683;48.738;9.226;2022-09-12T03:40:35;10.50;99.90
1379;DHT22;683;48.738;9.226;2022-09-12T03:43:03;10.40;99.90
1379;DHT22;683;48.738;9.226;2022-09-12T03:45:31;10.40;99.90
1379;DHT22;683;48.738;9.226;2022-09-12T03:47:58;10.30;99.90
1379;DHT22;683;48.738;9.226;2022-09-12T03:50:26;10.30;99.90
1379;DHT22;683;48.738;9.226;2022-09-12T03:52:57;10.30;99.90
1379;DHT22;683;48.738;9.226;2022-09-12T03:55:25;10.40;99.90
1379;DHT22;683;48.738;9.226;2022-09-12T03:57:53;10.40;99.90
1379;DHT22;683;48.738;9.226;2022-09-12T04:00:21;10.40;99.90
1379;DHT22;683;48.738;9.226;2022-09-12T04:02:53;10.30;99.90
1379;DHT22;683;48.738;9.226;2022-09-12T04:05:21;10.30;99.90
1379;DHT22;683;48.738;9.226;2022-09-12T04:07:49;10.20;99.90
1379;DHT22;683;48.738;9.226;2022-09-12T04:10:18;10.20;99.90
1379;DHT22;683;48.738;9.226;2022-09-12T04:12:46;10.20;99.90
1379;DHT22;683;48.738;9.226;2022-09-12T04:15:14;10.20;99.90
1379;DHT22;683;48.738;9.226;2022-09-12T04:17:41;10.20;99.90
1379;DHT22;683;48.738;9.226;2022-09-12T04:20:09;10.20;99.90
1379;DHT22;683;48.738;9.226;2022-09-12T04:22:37;10.10;99.90
1379;DHT22;683;48.738;9.226;2022-09-12T04:25:06;10.10;99.90
1379;DHT22;683;48.738;9.226;2022-09-12T04:27:36;10.10;99.90
1379;DHT22;683;48.738;9.226;2022-09-12T04:30:04;10.20;99.90
1379;DHT22;683;48.738;9.226;2022-09-12T04:32:32;10.10;99.90
1379;DHT22;683;48.738;9.226;2022-09-12T04:35:00;10.10;99.90
1379;DHT22;683;48.738;9.226;2022-09-12T04:37:27;10.10;99.90
1379;DHT22;683;48.738;9.226;2022-09-12T04:39:55;10.10;99.90
1379;DHT22;683;48.738;9.226;2022-09-12T04:42:24;10.20;99.90
1379;DHT22;683;48.738;9.226;2022-09-12T04:44:53;10.20;99.90
1379;DHT22;683;48.738;9.226;2022-09-12T04:47:21;10.20;99.90
1379;DHT22;683;48.738;9.226;2022-09-12T04:49:48;10.20;99.90
1379;DHT22;683;48.738;9.226;2022-09-12T04:52:17;10.20;99.90
1379;DHT22;683;48.738;9.226;2022-09-12T04:54:45;10.20;99.90
1379;DHT22;683;48.738;9.226;2022-09-12T04:57:12;10.20;99.90
1379;DHT22;683;48.738;9.226;2022-09-12T04:59:40;10.30;99.90
1379;DHT22;683;48.738;9.226;2022-09-12T05:02:09;10.30;99.90
1379;DHT22;683;48.738;9.226;2022-09-12T05:04:37;10.30;99.90
1379;DHT22;683;48.738;9.226;2022-09-12T05:07:05;10.40;99.90
1379;DHT22;683;48.738;9.226;2022-09-12T05:09:32;10.40;99.90
1379;DHT22;683;48.738;9.226;2022-09-12T05:12:00;10.40;99.90
1379;DHT22;683;48.738;9.226;2022-09-12T05:14:28;10.40;99.90
1379;DHT22;683;48.738;9.226;2022-09-12T05:16:57;10.40;99.90
1379;DHT22;683;48.738;9.226;2022-09-12T05:19:30;10.50;99.90
1379;DHT22;683;48.738;9.226;2022-09-12T05:21:59;10.60;99.90
1379;DHT22;683;48.738;9.226;2022-09-12T05:24:27;10.60;99.90
1379;DHT22;683;48.738;9.226;2022-09-12T05:26:57;10.60;99.90
1379;DHT22;683;48.738;9.226;2022-09-12T05:29:26;10.70;99.90
1379;DHT22;683;48.738;9.226;2022-09-12T05:31:53;10.70;99.90
1379;DHT22;683;48.738;9.226;2022-09-12T05:34:22;10.70;99.90
1379;DHT22;683;48.738;9.226;2022-09-12T05:36:51;10.70;99.90
1379;DHT22;683;48.738;9.226;2022-09-12T05:39:18;10.70;99.90
1379;DHT22;683;48.738;9.226;2022-09-12T05:41:46;10.80;99.90
1379;DHT22;683;48.738;9.226;2022-09-12T05:44:14;10.80;99.90
1379;DHT22;683;48.738;9.226;2022-09-12T05:46:43;10.90;99.90
1379;DHT22;683;48.738;9.226;2022-09-12T05:49:12;10.90;99.90
1379;DHT22;683;48.738;9.226;2022-09-12T05:51:42;10.90;99.90
1379;DHT22;683;48.738;9.226;2022-09-12T05:54:13;10.90;99.90
1379;DHT22;683;48.738;9.226;2022-09-12T05:56:43;10.90;99.90
1379;DHT22;683;48.738;9.226;2022-09-12T05:59:12;11.00;99.90
1379;DHT22;683;48.738;9.226;2022-09-12T06:01:40;11.10;99.90
1379;DHT22;683;48.738;9.226;2022-09-12T06:04:08;11.10;99.90
1379;DHT22;683;48.738;9.226;2022-09-12T06:06:38;11.20;99.90
1379;DHT22;683;48.738;9.226;2022-09-12T06:09:07;11.20;99.90
1379;DHT22;683;48.738;9.226;2022-09-12T06:11:38;11.30;99.90
1379;DHT22;683;48.738;9.226;2022-09-12T06:14:08;11.40;99.90
1379;DHT22;683;48.738;9.226;2022-09-12T06:16:36;11.50;99.90
1379;DHT22;683;48.738;9.226;2022-09-12T06:19:05;11.50;99.90
1379;DHT22;683;48.738;9.226;2022-09-12T06:21:33;11.70;99.90
1379;DHT22;683;48.738;9.226;2022-09-12T06:24:03;11.80;99.90
1379;DHT22;683;48.738;9.226;2022-09-12T06:26:30;11.90;99.90
1379;DHT22;683;48.738;9.226;2022-09-12T06:29:00;11.90;99.90
1379;DHT22;683;48.738;9.226;2022-09-12T06:31:29;12.00;99.90
1379;DHT22;683;48.738;9.226;2022-09-12T06:34:00;12.10;99.90
1379;DHT22;683;48.738;9.226;2022-09-12T06:36:30;12.30;99.90
1379;DHT22;683;48.738;9.226;2022-09-12T06:38:59;12.40;99.90
1379;DHT22;683;48.738;9.226;2022-09-12T06:41:28;12.50;99.90
1379;DHT22;683;48.738;9.226;2022-09-12T06:43:58;12.70;99.90
1379;DHT22;683;48.738;9.226;2022-09-12T06:46:27;12.70;99.90
1379;DHT22;683;48.738;9.226;2022-09-12T06:48:56;12.70;99.90
1379;DHT22;683;48.738;9.226;2022-09-12T06:51:25;12.80;99.90
1379;DHT22;683;48.738;9.226;2022-09-12T06:53:54;12.90;99.90
1379;DHT22;683;48.738;9.226;2022-09-12T06:56:23;12.90;99.90
1379;DHT22;683;48.738;9.226;2022-09-12T06:58:51;13.00;99.90
1379;DHT22;683;48.738;9.226;2022-09-12T07:01:22;13.20;99.90
1379;DHT22;683;48.738;9.226;2022-09-12T07:03:52;13.20;99.90
1379;DHT22;683;48.738;9.226;2022-09-12T07:06:23;13.30;99.90
1379;DHT22;683;48.738;9.226;2022-09-12T07:08:51;13.40;99.90
1379;DHT22;683;48.738;9.226;2022-09-12T07:11:20;13.50;99.90
1379;DHT22;683;48.738;9.226;2022-09-12T07:13:50;13.70;99.90
1379;DHT22;683;48.738;9.226;2022-09-12T07:16:18;13.90;99.90
1379;DHT22;683;48.738;9.226;2022-09-12T07:18:53;13.90;99.90
1379;DHT22;683;48.738;9.226;2022-09-12T07:21:21;14.00;99.90
1379;DHT22;683;48.738;9.226;2022-09-12T07:23:49;14.10;99.90
1379;DHT22;683;48.738;9.226;2022-09-12T07:26:20;14.20;99.90
1379;DHT22;683;48.738;9.226;2022-09-12T07:28:50;14.30;99.90
1379;DHT22;683;48.738;9.226;2022-09-12T07:31:20;14.50;99.90
1379;DHT22;683;48.738;9.226;2022-09-12T07:33:50;14.60;99.90
1379;DHT22;683;48.738;9.226;2022-09-12T07:36:20;14.70;99.90
1379;DHT22;683;48.738;9.226;2022-09-12T07:38:53;14.90;99.90
1379;DHT22;683;48.738;9.226;2022-09-12T07:41:22;15.00;99.90
1379;DHT22;683;48.738;9.226;2022-09-12T07:43:51;15.20;99.90
1379;DHT22;683;48.738;9.226;2022-09-12T07:46:20;15.30;99.90
1379;DHT22;683;48.738;9.226;2022-09-12T07:48:53;15.50;99.90
1379;DHT22;683;48.738;9.226;2022-09-12T07:51:22;15.60;99.90
1379;DHT22;683;48.738;9.226;2022-09-12T07:53:50;15.90;99.90
1379;DHT22;683;48.738;9.226;2022-09-12T07:56:18;16.10;99.90
1379;DHT22;683;48.738;9.226;2022-09-12T07:58:46;16.30;99.90
1379;DHT22;683;48.738;9.226;2022-09-12T08:01:15;16.40;99.90
1379;DHT22;683;48.738;9.226;2022-09-12T08:03:45;16.60;99.90
1379;DHT22;683;48.738;9.226;2022-09-12T08:06:16;16.70;99.90
1379;DHT22;683;48.738;9.226;2022-09-12T08:08:45;16.80;99.90
1379;DHT22;683;48.738;9.226;2022-09-12T08:11:15;16.90;99.90
1379;DHT22;683;48.738;9.226;2022-09-12T08:13:44;17.00;99.90
1379;DHT22;683;48.738;9.226;2022-09-12T08:16:13;17.10;99.90
1379;DHT22;683;48.738;9.226;2022-09-12T08:18:41;17.10;99.90
1379;DHT22;683;48.738;9.226;2022-09-12T08:21:11;17.20;99.90
1379;DHT22;683;48.738;9.226;2022-09-12T08:23:40;17.40;99.90
1379;DHT22;683;48.738;9.226;2022-09-12T08:26:09;17.80;99.90
1379;DHT22;683;48.738;9.226;2022-09-12T08:28:37;17.90;99.90
1379;DHT22;683;48.738;9.226;2022-09-12T08:31:08;18.10;99.90
1379;DHT22;683;48.738;9.226;2022-09-12T08:33:37;18.00;99.90
1379;DHT22;683;48.738;9.226;2022-09-12T08:36:06;18.10;99.90
1379;DHT22;683;48.738;9.226;2022-09-12T08:38:35;18.20;99.90
1379;DHT22;683;48.738;9.226;2022-09-12T08:41:10;18.40;99.90
1379;DHT22;683;48.738;9.226;2022-09-12T08:43:52;18.40;99.90
1379;DHT22;683;48.738;9.226;2022-09-12T08:46:23;18.40;99.90
1379;DHT22;683;48.738;9.226;2022-09-12T08:48:54;18.50;99.90
1379;DHT22;683;48.738;9.226;2022-09-12T08:51:23;18.50;99.90
1379;DHT22;683;48.738;9.226;2022-09-12T08:53:51;18.60;99.90
1379;DHT22;683;48.738;9.226;2022-09-12T08:56:20;18.70;99.90
1379;DHT22;683;48.738;9.226;2022-09-12T08:58:48;18.80;99.90
1379;DHT22;683;48.738;9.226;2022-09-12T09:01:18;18.90;99.80
1379;DHT22;683;48.738;9.226;2022-09-12T09:03:58;19.10;99.90
1379;DHT22;683;48.738;9.226;2022-09-12T09:09:18;19.30;99.70
1379;DHT22;683;48.738;9.226;2022-09-12T09:11:54;19.30;98.10
1379;DHT22;683;48.738;9.226;2022-09-12T09:14:30;19.30;98.90
1379;DHT22;683;48.738;9.226;2022-09-12T09:17:18;19.50;98.60
1379;DHT22;683;48.738;9.226;2022-09-12T09:19:48;19.80;97.60
1379;DHT22;683;48.738;9.226;2022-09-12T09:22:19;19.70;97.10
1379;DHT22;683;48.738;9.226;2022-09-12T09:24:50;19.80;97.10
1379;DHT22;683;48.738;9.226;2022-09-12T09:27:23;19.80;97.40
1379;DHT22;683;48.738;9.226;2022-09-12T09:29:53;19.80;96.90
1379;DHT22;683;48.738;9.226;2022-09-12T09:32:23;19.90;96.50
1379;DHT22;683;48.738;9.226;2022-09-12T09:34:51;19.90;96.30
1379;DHT22;683;48.738;9.226;2022-09-12T09:37:20;19.90;96.60
1379;DHT22;683;48.738;9.226;2022-09-12T09:39:51;19.90;97.00
1379;DHT22;683;48.738;9.226;2022-09-12T09:42:25;20.10;96.40
1379;DHT22;683;48.738;9.226;2022-09-12T09:44:54;20.20;95.60
1379;DHT22;683;48.738;9.226;2022-09-12T09:47:23;20.30;95.00
1379;DHT22;683;48.738;9.226;2022-09-12T09:49:51;20.60;94.60
1379;DHT22;683;48.738;9.226;2022-09-12T09:52:20;20.70;94.20
1379;DHT22;683;48.738;9.226;2022-09-12T09:54:51;20.80;93.20
1379;DHT22;683;48.738;9.226;2022-09-12T09:57:39;20.70;92.80
1379;DHT22;683;48.738;9.226;2022-09-12T10:03:02;20.50;93.10
1379;DHT22;683;48.738;9.226;2022-09-12T10:05:33;20.80;93.00
1379;DHT22;683;48.738;9.226;2022-09-12T10:08:02;21.10;93.10
1379;DHT22;683;48.738;9.226;2022-09-12T10:10:30;21.30;92.70
1379;DHT22;683;48.738;9.226;2022-09-12T10:13:08;21.50;91.10
1379;DHT22;683;48.738;9.226;2022-09-12T10:15:36;21.50;90.30
1379;DHT22;683;48.738;9.226;2022-09-12T10:18:04;21.50;90.70
1379;DHT22;683;48.738;9.226;2022-09-12T10:20:33;21.60;91.30
1379;DHT22;683;48.738;9.226;2022-09-12T10:23:02;21.70;90.20
1379;DHT22;683;48.738;9.226;2022-09-12T10:25:36;21.80;88.40
1379;DHT22;683;48.738;9.226;2022-09-12T10:28:03;21.90;88.30
1379;DHT22;683;48.738;9.226;2022-09-12T10:30:32;21.90;88.30
1379;DHT22;683;48.738;9.226;2022-09-12T10:33:03;22.10;88.30
1379;DHT22;683;48.738;9.226;2022-09-12T10:35:41;22.30;90.00
1379;DHT22;683;48.738;9.226;2022-09-12T10:38:11;22.30;86.30
1379;DHT22;683;48.738;9.226;2022-09-12T10:40:40;22.20;87.30
1379;DHT22;683;48.738;9.226;2022-09-12T10:43:15;22.20;88.20
1379;DHT22;683;48.738;9.226;2022-09-12T10:45:44;22.30;87.50
1379;DHT22;683;48.738;9.226;2022-09-12T10:48:21;22.60;85.80
1379;DHT22;683;48.738;9.226;2022-09-12T10:50:50;22.80;85.10
1379;DHT22;683;48.738;9.226;2022-09-12T10:53:18;22.90;81.60
1379;DHT22;683;48.738;9.226;2022-09-12T10:55:52;22.90;82.70
1379;DHT22;683;48.738;9.226;2022-09-12T10:58:27;23.10;81.00
1379;DHT22;683;48.738;9.226;2022-09-12T11:01:02;23.10;78.70
1379;DHT22;683;48.738;9.226;2022-09-12T11:03:38;23.20;77.20
1379;DHT22;683;48.738;9.226;2022-09-12T11:06:08;23.20;76.10
1379;DHT22;683;48.738;9.226;2022-09-12T11:08:41;23.20;78.80
1379;DHT22;683;48.738;9.226;2022-09-12T11:11:13;23.10;77.00
1379;DHT22;683;48.738;9.226;2022-09-12T11:14:05;23.10;72.60
1379;DHT22;683;48.738;9.226;2022-09-12T11:16:39;23.20;72.30
1379;DHT22;683;48.738;9.226;2022-09-12T11:19:40;23.20;70.60
1379;DHT22;683;48.738;9.226;2022-09-12T11:22:24;23.20;70.00
1379;DHT22;683;48.738;9.226;2022-09-12T11:25:22;23.40;71.30
1379;DHT22;683;48.738;9.226;2022-09-12T11:28:14;23.40;70.50
1379;DHT22;683;48.738;9.226;2022-09-12T11:30:54;23.40;72.00
1379;DHT22;683;48.738;9.226;2022-09-12T11:33:38;23.30;73.40
1379;DHT22;683;48.738;9.226;2022-09-12T11:36:27;23.50;72.30
1379;DHT22;683;48.738;9.226;2022-09-12T11:39:09;23.50;71.20
1379;DHT22;683;48.738;9.226;2022-09-12T11:41:41;23.40;69.40
1379;DHT22;683;48.738;9.226;2022-09-12T11:44:17;23.60;71.20
1379;DHT22;683;48.738;9.226;2022-09-12T11:46:45;23.60;72.20
1379;DHT22;683;48.738;9.226;2022-09-12T11:49:22;23.80;70.20
1379;DHT22;683;48.738;9.226;2022-09-12T11:51:54;24.00;68.00
1379;DHT22;683;48.738;9.226;2022-09-12T11:54:27;24.20;65.90
1379;DHT22;683;48.738;9.226;2022-09-12T11:57:03;24.40;66.00
1379;DHT22;683;48.738;9.226;2022-09-12T11:59:39;24.70;66.30
1379;DHT22;683;48.738;9.226;2022-09-12T12:02:19;24.80;68.00
1379;DHT22;683;48.738;9.226;2022-09-12T12:05:03;24.70;65.30
1379;DHT22;683;48.738;9.226;2022-09-12T12:07:38;24.80;62.50
1379;DHT22;683;48.738;9.226;2022-09-12T12:10:25;24.50;62.80
1379;DHT22;683;48.738;9.226;2022-09-12T12:12:54;24.50;62.20
1379;DHT22;683;48.738;9.226;2022-09-12T12:15:23;24.70;60.30
1379;DHT22;683;48.738;9.226;2022-09-12T12:18:02;24.60;59.80
1379;DHT22;683;48.738;9.226;2022-09-12T12:20:33;24.40;57.60
1379;DHT22;683;48.738;9.226;2022-09-12T12:23:01;24.40;60.00
1379;DHT22;683;48.738;9.226;2022-09-12T12:25:49;24.80;60.30
1379;DHT22;683;48.738;9.226;2022-09-12T12:31:18;25.60;62.70
1379;DHT22;683;48.738;9.226;2022-09-12T12:33:59;26.60;60.50
1379;DHT22;683;48.738;9.226;2022-09-12T12:36:37;27.40;58.30
1379;DHT22;683;48.738;9.226;2022-09-12T12:45:48;30.50;51.50
1379;DHT22;683;48.738;9.226;2022-09-12T12:48:25;31.40;50.60
1379;DHT22;683;48.738;9.226;2022-09-12T12:51:29;32.40;46.80
1379;DHT22;683;48.738;9.226;2022-09-12T12:54:00;32.80;44.90
1379;DHT22;683;48.738;9.226;2022-09-12T12:56:37;32.80;45.00
1379;DHT22;683;48.738;9.226;2022-09-12T12:59:15;32.80;45.20
1379;DHT22;683;48.738;9.226;2022-09-12T13:01:50;33.00;41.40
1379;DHT22;683;48.738;9.226;2022-09-12T13:04:21;33.80;41.40
1379;DHT22;683;48.738;9.226;2022-09-12T13:06:57;33.70;40.40
1379;DHT22;683;48.738;9.226;2022-09-12T13:09:31;34.30;39.60
1379;DHT22;683;48.738;9.226;2022-09-12T13:12:04;34.40;40.70
1379;DHT22;683;48.738;9.226;2022-09-12T13:14:36;34.50;38.90
1379;DHT22;683;48.738;9.226;2022-09-12T13:17:21;34.80;38.80
1379;DHT22;683;48.738;9.226;2022-09-12T13:19:53;35.40;37.20
1379;DHT22;683;48.738;9.226;2022-09-12T13:22:22;35.50;37.20
1379;DHT22;683;48.738;9.226;2022-09-12T13:24:53;34.90;36.00
1379;DHT22;683;48.738;9.226;2022-09-12T13:27:23;35.30;36.20
1379;DHT22;683;48.738;9.226;2022-09-12T13:30:05;35.90;35.60
1379;DHT22;683;48.738;9.226;2022-09-12T13:32:34;35.60;36.00
1379;DHT22;683;48.738;9.226;2022-09-12T13:35:09;35.60;35.50
1379;DHT22;683;48.738;9.226;2022-09-12T13:37:45;35.00;36.30
1379;DHT22;683;48.738;9.226;2022-09-12T13:40:29;35.80;34.70
1379;DHT22;683;48.738;9.226;2022-09-12T13:43:11;36.40;33.70
1379;DHT22;683;48.738;9.226;2022-09-12T13:45:42;36.80;32.40
1379;DHT22;683;48.738;9.226;2022-09-12T13:48:15;37.10;31.30
1379;DHT22;683;48.738;9.226;2022-09-12T13:50:49;37.00;30.50
1379;DHT22;683;48.738;9.226;2022-09-12T13:53:19;37.10;31.60
1379;DHT22;683;48.738;9.226;2022-09-12T13:55:52;37.20;31.70
1379;DHT22;683;48.738;9.226;2022-09-12T13:58:22;37.30;31.10
1379;DHT22;683;48.738;9.226;2022-09-12T14:01:02;37.30;31.10
1379;DHT22;683;48.738;9.226;2022-09-12T14:03:32;37.50;30.90
1379;DHT22;683;48.738;9.226;2022-09-12T14:06:19;37.50;31.30
1379;DHT22;683;48.738;9.226;2022-09-12T14:08:50;38.10;29.00
1379;DHT22;683;48.738;9.226;2022-09-12T14:11:24;37.60;29.80
1379;DHT22;683;48.738;9.226;2022-09-12T14:13:52;37.70;31.10
1379;DHT22;683;48.738;9.226;2022-09-12T14:16:21;38.30;30.80
1379;DHT22;683;48.738;9.226;2022-09-12T14:18:52;38.20;30.60
1379;DHT22;683;48.738;9.226;2022-09-12T14:21:31;38.30;31.20
1379;DHT22;683;48.738;9.226;2022-09-12T14:24:01;38.80;31.30
1379;DHT22;683;48.738;9.226;2022-09-12T14:26:35;39.10;30.00
1379;DHT22;683;48.738;9.226;2022-09-12T14:29:05;39.10;29.80
1379;DHT22;683;48.738;9.226;2022-09-12T14:31:35;38.50;30.00
1379;DHT22;683;48.738;9.226;2022-09-12T14:34:11;38.20;30.20
1379;DHT22;683;48.738;9.226;2022-09-12T14:36:43;38.20;30.00
1379;DHT22;683;48.738;9.226;2022-09-12T14:39:19;38.30;30.80
1379;DHT22;683;48.738;9.226;2022-09-12T14:41:50;38.10;30.40
1379;DHT22;683;48.738;9.226;2022-09-12T14:44:27;38.50;29.80
1379;DHT22;683;48.738;9.226;2022-09-12T14:47:00;38.30;30.30
1379;DHT22;683;48.738;9.226;2022-09-12T14:49:31;38.30;31.20
1379;DHT22;683;48.738;9.226;2022-09-12T14:52:02;39.10;30.60
1379;DHT22;683;48.738;9.226;2022-09-12T14:54:36;39.20;29.90
1379;DHT22;683;48.738;9.226;2022-09-12T14:57:30;38.00;30.20
1379;DHT22;683;48.738;9.226;2022-09-12T15:00:18;37.70;30.60
1379;DHT22;683;48.738;9.226;2022-09-12T15:02:48;38.00;30.50
1379;DHT22;683;48.738;9.226;2022-09-12T15:05:25;38.70;29.80
1379;DHT22;683;48.738;9.226;2022-09-12T15:07:58;38.20;31.00
1379;DHT22;683;48.738;9.226;2022-09-12T15:10:28;38.00;30.70
1379;DHT22;683;48.738;9.226;2022-09-12T15:13:22;39.00;30.70
1379;DHT22;683;48.738;9.226;2022-09-12T15:15:52;39.70;29.90
1379;DHT22;683;48.738;9.226;2022-09-12T15:18:22;39.80;29.40
1379;DHT22;683;48.738;9.226;2022-09-12T15:20:52;39.60;29.90
1379;DHT22;683;48.738;9.226;2022-09-12T15:23:28;39.30;29.60
1379;DHT22;683;48.738;9.226;2022-09-12T15:25:57;38.50;30.10
1379;DHT22;683;48.738;9.226;2022-09-12T15:28:28;38.00;31.00
1379;DHT22;683;48.738;9.226;2022-09-12T15:30:56;36.20;32.50
1379;DHT22;683;48.738;9.226;2022-09-12T15:33:26;34.40;34.60
1379;DHT22;683;48.738;9.226;2022-09-12T15:35:54;32.60;36.90
1379;DHT22;683;48.738;9.226;2022-09-12T15:38:21;31.10;39.60
1379;DHT22;683;48.738;9.226;2022-09-12T15:40:49;30.00;41.50
1379;DHT22;683;48.738;9.226;2022-09-12T15:43:19;29.10;42.90
1379;DHT22;683;48.738;9.226;2022-09-12T15:45:49;28.30;44.00
1379;DHT22;683;48.738;9.226;2022-09-12T15:48:18;27.70;45.40
1379;DHT22;683;48.738;9.226;2022-09-12T15:50:46;27.30;47.20
1379;DHT22;683;48.738;9.226;2022-09-12T15:53:15;27.20;47.10
1379;DHT22;683;48.738;9.226;2022-09-12T15:55:43;26.90;47.90
1379;DHT22;683;48.738;9.226;2022-09-12T15:58:11;26.70;48.00
1379;DHT22;683;48.738;9.226;2022-09-12T16:00:39;26.50;48.30
1379;DHT22;683;48.738;9.226;2022-09-12T16:03:19;26.30;49.10
1379;DHT22;683;48.738;9.226;2022-09-12T16:05:47;25.90;48.20
1379;DHT22;683;48.738;9.226;2022-09-12T16:08:15;25.60;49.70
1379;DHT22;683;48.738;9.226;2022-09-12T16:10:43;25.50;50.50
1379;DHT22;683;48.738;9.226;2022-09-12T16:13:10;25.40;50.30
1379;DHT22;683;48.738;9.226;2022-09-12T16:15:38;25.20;51.20
1379;DHT22;683;48.738;9.226;2022-09-12T16:18:06;25.20;51.00
1379;DHT22;683;48.738;9.226;2022-09-12T16:20:37;25.00;50.80
1379;DHT22;683;48.738;9.226;2022-09-12T16:23:04;25.40;51.40
1379;DHT22;683;48.738;9.226;2022-09-12T16:25:32;26.20;49.60
1379;DHT22;683;48.738;9.226;2022-09-12T16:28:00;27.20;48.80
1379;DHT22;683;48.738;9.226;2022-09-12T16:30:31;27.80;46.80
1379;DHT22;683;48.738;9.226;2022-09-12T16:32:59;27.70;46.10
1379;DHT22;683;48.738;9.226;2022-09-12T16:35:26;27.10;47.20
1379;DHT22;683;48.738;9.226;2022-09-12T16:37:56;26.50;47.80
1379;DHT22;683;48.738;9.226;2022-09-12T16:40:23;26.00;49.30
1379;DHT22;683;48.738;9.226;2022-09-12T16:42:51;25.50;50.50
1379;DHT22;683;48.738;9.226;2022-09-12T16:45:19;25.20;50.70
1379;DHT22;683;48.738;9.226;2022-09-12T16:47:46;24.80;52.60
1379;DHT22;683;48.738;9.226;2022-09-12T16:50:14;24.60;51.70
1379;DHT22;683;48.738;9.226;2022-09-12T16:52:44;24.40;52.20
1379;DHT22;683;48.738;9.226;2022-09-12T16:55:13;24.20;53.70
1379;DHT22;683;48.738;9.226;2022-09-12T16:57:41;23.90;53.80
1379;DHT22;683;48.738;9.226;2022-09-12T17:00:10;23.70;54.90
1379;DHT22;683;48.738;9.226;2022-09-12T17:02:38;23.50;56.50